sensor_id;sensor_type;location;lat;lon;timestamp;pressure;altitude;pressure_sealevel;temperature;humidity
59487;BME280;45298;54.918;73.504;2023-07-09T00:02:27;99889.28;;;20.92;61.67
59487;BME280;45298;54.918;73.504;2023-07-09T00:04:55;99886.19;;;20.71;62.68
59487;BME280;45298;54.918;73.504;2023-07-09T00:07:32;99905.19;;;20.61;61.23
59487;BME280;45298;54.918;73.504;2023-07-09T00:10:02;99917.34;;;20.65;62.13
59487;BME280;45298;54.918;73.504;2023-07-09T00:12:31;99914.25;;;20.43;60.98
59487;BME280;45298;54.918;73.504;2023-07-09T00:15:00;99922.16;;;20.45;63.01
59487;BME280;45298;54.918;73.504;2023-07-09T00:17:31;99918.25;;;20.39;62.97
59487;BME280;45298;54.918;73.504;2023-07-09T00:20:04;99925.69;;;20.45;64.00
59487;BME280;45298;54.918;73.504;2023-07-09T00:22:33;99923.00;;;20.45;62.53
59487;BME280;45298;54.918;73.504;2023-07-09T00:25:03;99916.25;;;20.41;62.43
59487;BME280;45298;54.918;73.504;2023-07-09T00:27:32;99912.06;;;20.47;62.27
59487;BME280;45298;54.918;73.504;2023-07-09T00:30:03;99908.22;;;20.49;61.01
59487;BME280;45298;54.918;73.504;2023-07-09T00:32:32;99929.81;;;20.66;60.87
59487;BME280;45298;54.918;73.504;2023-07-09T00:35:03;99870.78;;;20.38;61.33
59487;BME280;45298;54.918;73.504;2023-07-09T00:37:33;99927.44;;;20.71;60.31
59487;BME280;45298;54.918;73.504;2023-07-09T00:40:02;99924.94;;;20.69;61.63
59487;BME280;45298;54.918;73.504;2023-07-09T00:42:31;99872.66;;;20.37;60.94
59487;BME280;45298;54.918;73.504;2023-07-09T00:45:00;99906.81;;;21.05;60.96
59487;BME280;45298;54.918;73.504;2023-07-09T00:50:40;99930.44;;;21.61;58.65
59487;BME280;45298;54.918;73.504;2023-07-09T00:53:24;99927.91;;;21.84;57.26
59487;BME280;45298;54.918;73.504;2023-07-09T00:56:01;99913.69;;;21.98;57.03
59487;BME280;45298;54.918;73.504;2023-07-09T00:58:33;99907.81;;;22.34;55.00
59487;BME280;45298;54.918;73.504;2023-07-09T01:01:09;99917.28;;;23.02;54.06
59487;BME280;45298;54.918;73.504;2023-07-09T01:03:54;99919.91;;;23.10;53.69
59487;BME280;45298;54.918;73.504;2023-07-09T01:06:41;99934.16;;;23.50;53.68
59487;BME280;45298;54.918;73.504;2023-07-09T01:09:12;99925.75;;;24.13;50.60
59487;BME280;45298;54.918;73.504;2023-07-09T01:11:40;99941.53;;;24.25;50.75
59487;BME280;45298;54.918;73.504;2023-07-09T01:14:12;99936.22;;;24.32;49.97
59487;BME280;45298;54.918;73.504;2023-07-09T01:16:50;99938.91;;;24.77;49.18
59487;BME280;45298;54.918;73.504;2023-07-09T01:19:28;99936.91;;;25.50;48.01
59487;BME280;45298;54.918;73.504;2023-07-09T01:22:00;99949.38;;;25.95;47.37
59487;BME280;45298;54.918;73.504;2023-07-09T01:27:21;99951.53;;;25.28;46.11
59487;BME280;45298;54.918;73.504;2023-07-09T01:29:50;99967.47;;;24.64;49.13
59487;BME280;45298;54.918;73.504;2023-07-09T01:32:20;99943.88;;;24.13;51.52
59487;BME280;45298;54.918;73.504;2023-07-09T01:34:52;99954.09;;;23.88;51.15
59487;BME280;45298;54.918;73.504;2023-07-09T01:37:27;99941.59;;;23.87;51.55
59487;BME280;45298;54.918;73.504;2023-07-09T01:39:56;99946.31;;;24.23;52.16
59487;BME280;45298;54.918;73.504;2023-07-09T01:42:25;99921.34;;;24.42;49.19
59487;BME280;45298;54.918;73.504;2023-07-09T01:44:56;99962.41;;;24.91;48.43
59487;BME280;45298;54.918;73.504;2023-07-09T01:47:26;99966.44;;;24.95;47.87
59487;BME280;45298;54.918;73.504;2023-07-09T01:49:55;99970.97;;;25.10;47.83
59487;BME280;45298;54.918;73.504;2023-07-09T01:52:29;99956.81;;;25.14;47.87
59487;BME280;45298;54.918;73.504;2023-07-09T01:55:01;99964.41;;;25.19;46.17
59487;BME280;45298;54.918;73.504;2023-07-09T01:57:31;99979.75;;;25.12;47.38
59487;BME280;45298;54.918;73.504;2023-07-09T02:00:08;99975.88;;;25.21;47.08
59487;BME280;45298;54.918;73.504;2023-07-09T02:02:45;99924.44;;;24.91;45.57
59487;BME280;45298;54.918;73.504;2023-07-09T02:05:17;99929.22;;;24.89;45.65
59487;BME280;45298;54.918;73.504;2023-07-09T02:07:47;99990.88;;;25.39;46.07
59487;BME280;45298;54.918;73.504;2023-07-09T02:10:17;99985.88;;;25.57;44.34
59487;BME280;45298;54.918;73.504;2023-07-09T02:12:47;99979.19;;;25.60;44.59
59487;BME280;45298;54.918;73.504;2023-07-09T02:15:16;99983.03;;;25.72;46.45
59487;BME280;45298;54.918;73.504;2023-07-09T02:17:45;99936.56;;;25.60;44.97
59487;BME280;45298;54.918;73.504;2023-07-09T02:20:15;99955.88;;;26.01;43.62
59487;BME280;45298;54.918;73.504;2023-07-09T02:22:44;99965.19;;;26.13;42.85
59487;BME280;45298;54.918;73.504;2023-07-09T02:25:13;99965.53;;;26.03;42.94
59487;BME280;45298;54.918;73.504;2023-07-09T02:27:41;99974.97;;;26.07;43.50
59487;BME280;45298;54.918;73.504;2023-07-09T02:30:10;99974.72;;;26.02;42.70
59487;BME280;45298;54.918;73.504;2023-07-09T02:32:40;99966.47;;;25.89;43.02
59487;BME280;45298;54.918;73.504;2023-07-09T02:35:09;99962.34;;;26.00;43.26
59487;BME280;45298;54.918;73.504;2023-07-09T02:37:40;99971.09;;;26.23;42.65
59487;BME280;45298;54.918;73.504;2023-07-09T02:40:11;99961.06;;;26.17;43.13
59487;BME280;45298;54.918;73.504;2023-07-09T02:42:40;99972.00;;;26.31;42.91
59487;BME280;45298;54.918;73.504;2023-07-09T02:45:09;99980.09;;;25.95;43.00
59487;BME280;45298;54.918;73.504;2023-07-09T02:47:39;99973.06;;;26.08;42.71
59487;BME280;45298;54.918;73.504;2023-07-09T02:50:08;99983.38;;;26.13;42.58
59487;BME280;45298;54.918;73.504;2023-07-09T02:52:38;99966.97;;;25.99;41.64
59487;BME280;45298;54.918;73.504;2023-07-09T02:55:07;99966.44;;;25.60;42.85
59487;BME280;45298;54.918;73.504;2023-07-09T02:57:38;99977.31;;;25.60;43.36
59487;BME280;45298;54.918;73.504;2023-07-09T03:00:07;99966.00;;;25.57;42.96
59487;BME280;45298;54.918;73.504;2023-07-09T03:02:36;99969.03;;;25.69;44.07
59487;BME280;45298;54.918;73.504;2023-07-09T03:05:05;99960.94;;;25.75;43.25
59487;BME280;45298;54.918;73.504;2023-07-09T03:07:34;99968.84;;;25.99;44.50
59487;BME280;45298;54.918;73.504;2023-07-09T03:10:04;99969.31;;;26.09;42.22
59487;BME280;45298;54.918;73.504;2023-07-09T03:12:33;99971.06;;;26.17;43.47
59487;BME280;45298;54.918;73.504;2023-07-09T03:15:02;99961.91;;;26.24;41.88
59487;BME280;45298;54.918;73.504;2023-07-09T03:17:31;99945.69;;;26.38;42.68
59487;BME280;45298;54.918;73.504;2023-07-09T03:20:00;99953.78;;;26.73;42.93
59487;BME280;45298;54.918;73.504;2023-07-09T03:22:30;99956.16;;;26.90;43.86
59487;BME280;45298;54.918;73.504;2023-07-09T03:24:58;99964.34;;;27.03;41.90
59487;BME280;45298;54.918;73.504;2023-07-09T03:27:27;99924.31;;;26.90;40.15
59487;BME280;45298;54.918;73.504;2023-07-09T03:29:56;99931.28;;;27.06;40.36
59487;BME280;45298;54.918;73.504;2023-07-09T03:32:25;99965.25;;;27.44;39.60
59487;BME280;45298;54.918;73.504;2023-07-09T03:34:57;99967.75;;;27.45;39.11
59487;BME280;45298;54.918;73.504;2023-07-09T03:37:26;99957.69;;;27.12;40.20
59487;BME280;45298;54.918;73.504;2023-07-09T03:39:55;99966.22;;;26.96;39.26
59487;BME280;45298;54.918;73.504;2023-07-09T03:42:24;99958.47;;;26.93;38.61
59487;BME280;45298;54.918;73.504;2023-07-09T03:44:53;99971.97;;;26.79;40.94
59487;BME280;45298;54.918;73.504;2023-07-09T03:47:23;99974.50;;;26.74;39.91
59487;BME280;45298;54.918;73.504;2023-07-09T03:49:52;99929.19;;;26.11;39.34
59487;BME280;45298;54.918;73.504;2023-07-09T03:52:21;99968.47;;;26.37;40.75
59487;BME280;45298;54.918;73.504;2023-07-09T03:54:50;99975.34;;;26.33;40.08
59487;BME280;45298;54.918;73.504;2023-07-09T03:57:19;99971.59;;;26.34;39.36
59487;BME280;45298;54.918;73.504;2023-07-09T03:59:48;99971.66;;;26.47;40.74
59487;BME280;45298;54.918;73.504;2023-07-09T04:02:17;99974.34;;;26.40;39.88
59487;BME280;45298;54.918;73.504;2023-07-09T04:04:46;99975.84;;;26.50;41.36
59487;BME280;45298;54.918;73.504;2023-07-09T04:07:16;99949.00;;;26.40;40.54
59487;BME280;45298;54.918;73.504;2023-07-09T04:09:48;99957.63;;;26.44;41.37
59487;BME280;45298;54.918;73.504;2023-07-09T04:12:17;99954.63;;;26.32;40.58
59487;BME280;45298;54.918;73.504;2023-07-09T04:14:46;99964.56;;;26.53;40.68
59487;BME280;45298;54.918;73.504;2023-07-09T04:17:16;99948.72;;;26.63;40.78
59487;BME280;45298;54.918;73.504;2023-07-09T04:19:45;99966.81;;;26.84;38.41
59487;BME280;45298;54.918;73.504;2023-07-09T04:22:14;99937.34;;;26.46;37.36
59487;BME280;45298;54.918;73.504;2023-07-09T04:24:43;99957.84;;;26.49;38.41
59487;BME280;45298;54.918;73.504;2023-07-09T04:27:13;99952.34;;;26.35;38.96
59487;BME280;45298;54.918;73.504;2023-07-09T04:29:42;99954.97;;;26.15;38.40
59487;BME280;45298;54.918;73.504;2023-07-09T04:32:14;99969.97;;;26.11;40.33
59487;BME280;45298;54.918;73.504;2023-07-09T04:34:47;99948.63;;;25.79;38.92
59487;BME280;45298;54.918;73.504;2023-07-09T04:37:16;99954.16;;;25.64;39.39
59487;BME280;45298;54.918;73.504;2023-07-09T04:39:45;99968.94;;;25.55;39.54
59487;BME280;45298;54.918;73.504;2023-07-09T04:42:16;99966.34;;;25.47;39.83
59487;BME280;45298;54.918;73.504;2023-07-09T04:44:46;99978.72;;;25.34;39.19
59487;BME280;45298;54.918;73.504;2023-07-09T04:47:15;99984.66;;;25.23;39.17
59487;BME280;45298;54.918;73.504;2023-07-09T04:49:44;99971.72;;;25.03;39.61
59487;BME280;45298;54.918;73.504;2023-07-09T04:52:13;99984.25;;;25.04;40.91
59487;BME280;45298;54.918;73.504;2023-07-09T04:54:43;99982.09;;;25.15;41.12
59487;BME280;45298;54.918;73.504;2023-07-09T04:57:12;99986.59;;;25.29;41.13
59487;BME280;45298;54.918;73.504;2023-07-09T04:59:41;99962.31;;;25.43;40.11
59487;BME280;45298;54.918;73.504;2023-07-09T05:02:11;99965.94;;;25.72;39.95
59487;BME280;45298;54.918;73.504;2023-07-09T05:04:40;99970.25;;;26.16;41.38
59487;BME280;45298;54.918;73.504;2023-07-09T05:07:09;99929.09;;;26.26;39.52
59487;BME280;45298;54.918;73.504;2023-07-09T05:09:38;99954.34;;;26.62;38.81
59487;BME280;45298;54.918;73.504;2023-07-09T05:12:08;99957.06;;;26.62;38.81
59487;BME280;45298;54.918;73.504;2023-07-09T05:14:36;99978.09;;;26.81;37.89
59487;BME280;45298;54.918;73.504;2023-07-09T05:17:06;99967.09;;;26.54;37.13
59487;BME280;45298;54.918;73.504;2023-07-09T05:19:35;99950.69;;;26.41;37.65
59487;BME280;45298;54.918;73.504;2023-07-09T05:22:04;99968.25;;;26.38;39.96
59487;BME280;45298;54.918;73.504;2023-07-09T05:24:33;99963.94;;;26.58;40.44
59487;BME280;45298;54.918;73.504;2023-07-09T05:27:02;99957.69;;;26.57;39.53
59487;BME280;45298;54.918;73.504;2023-07-09T05:29:31;99972.41;;;26.76;39.42
59487;BME280;45298;54.918;73.504;2023-07-09T05:32:00;99952.78;;;26.88;38.56
59487;BME280;45298;54.918;73.504;2023-07-09T05:34:29;99971.47;;;27.04;38.38
59487;BME280;45298;54.918;73.504;2023-07-09T05:36:58;99946.78;;;27.12;37.85
59487;BME280;45298;54.918;73.504;2023-07-09T05:39:28;99966.28;;;27.36;37.76
59487;BME280;45298;54.918;73.504;2023-07-09T05:41:58;99944.97;;;27.47;36.61
59487;BME280;45298;54.918;73.504;2023-07-09T05:44:27;99911.81;;;27.36;35.86
59487;BME280;45298;54.918;73.504;2023-07-09T05:46:57;99945.34;;;27.43;37.06
59487;BME280;45298;54.918;73.504;2023-07-09T05:49:26;99937.19;;;27.50;36.52
59487;BME280;45298;54.918;73.504;2023-07-09T05:51:55;99937.63;;;27.60;37.00
59487;BME280;45298;54.918;73.504;2023-07-09T05:54:24;99898.63;;;27.40;36.61
59487;BME280;45298;54.918;73.504;2023-07-09T05:56:54;99936.16;;;27.71;35.54
59487;BME280;45298;54.918;73.504;2023-07-09T05:59:23;99926.53;;;27.49;36.01
59487;BME280;45298;54.918;73.504;2023-07-09T06:01:52;99927.97;;;27.38;36.59
59487;BME280;45298;54.918;73.504;2023-07-09T06:04:21;99943.25;;;27.32;35.47
59487;BME280;45298;54.918;73.504;2023-07-09T06:06:49;99923.72;;;27.02;35.09
59487;BME280;45298;54.918;73.504;2023-07-09T06:09:18;99937.34;;;27.15;36.94
59487;BME280;45298;54.918;73.504;2023-07-09T06:11:47;99922.47;;;27.18;37.78
59487;BME280;45298;54.918;73.504;2023-07-09T06:14:16;99912.44;;;27.38;37.37
59487;BME280;45298;54.918;73.504;2023-07-09T06:16:45;99917.28;;;27.56;38.90
59487;BME280;45298;54.918;73.504;2023-07-09T06:19:14;99895.69;;;27.41;37.13
59487;BME280;45298;54.918;73.504;2023-07-09T06:21:43;99906.81;;;27.53;36.67
59487;BME280;45298;54.918;73.504;2023-07-09T06:24:13;99919.13;;;27.89;37.00
59487;BME280;45298;54.918;73.504;2023-07-09T06:26:42;99899.66;;;27.86;36.83
59487;BME280;45298;54.918;73.504;2023-07-09T06:29:13;99910.72;;;28.04;37.04
59487;BME280;45298;54.918;73.504;2023-07-09T06:31:42;99903.16;;;28.07;35.79
59487;BME280;45298;54.918;73.504;2023-07-09T06:34:11;99903.59;;;28.03;36.03
59487;BME280;45298;54.918;73.504;2023-07-09T06:36:40;99897.28;;;28.10;34.77
59487;BME280;45298;54.918;73.504;2023-07-09T06:39:11;99904.44;;;28.11;36.54
59487;BME280;45298;54.918;73.504;2023-07-09T06:41:40;99894.72;;;28.28;36.53
59487;BME280;45298;54.918;73.504;2023-07-09T06:44:28;99901.44;;;28.32;34.84
59487;BME280;45298;54.918;73.504;2023-07-09T06:46:57;99896.91;;;28.13;34.53
59487;BME280;45298;54.918;73.504;2023-07-09T06:49:25;99905.66;;;28.08;35.81
59487;BME280;45298;54.918;73.504;2023-07-09T06:51:54;99911.44;;;28.45;34.85
59487;BME280;45298;54.918;73.504;2023-07-09T06:54:23;99901.38;;;28.46;33.98
59487;BME280;45298;54.918;73.504;2023-07-09T06:56:52;99927.78;;;28.52;34.46
59487;BME280;45298;54.918;73.504;2023-07-09T06:59:21;99911.81;;;28.56;33.46
59487;BME280;45298;54.918;73.504;2023-07-09T07:01:50;99892.41;;;28.77;34.67
59487;BME280;45298;54.918;73.504;2023-07-09T07:04:19;99890.94;;;28.82;33.03
59487;BME280;45298;54.918;73.504;2023-07-09T07:06:48;99896.84;;;28.72;33.85
59487;BME280;45298;54.918;73.504;2023-07-09T07:09:20;99915.94;;;28.72;35.22
59487;BME280;45298;54.918;73.504;2023-07-09T07:11:49;99903.84;;;28.54;34.37
59487;BME280;45298;54.918;73.504;2023-07-09T07:14:18;99905.03;;;28.72;37.39
59487;BME280;45298;54.918;73.504;2023-07-09T07:16:47;99903.88;;;28.93;36.50
59487;BME280;45298;54.918;73.504;2023-07-09T07:19:16;99902.81;;;28.94;36.22
59487;BME280;45298;54.918;73.504;2023-07-09T07:21:45;99884.63;;;28.81;34.17
59487;BME280;45298;54.918;73.504;2023-07-09T07:24:14;99890.22;;;28.93;34.55
59487;BME280;45298;54.918;73.504;2023-07-09T07:26:44;99890.78;;;29.02;35.57
59487;BME280;45298;54.918;73.504;2023-07-09T07:29:13;99877.63;;;29.17;35.01
59487;BME280;45298;54.918;73.504;2023-07-09T07:31:42;99869.00;;;29.20;33.82
59487;BME280;45298;54.918;73.504;2023-07-09T07:34:11;99888.91;;;29.28;34.11
59487;BME280;45298;54.918;73.504;2023-07-09T07:36:40;99876.13;;;29.21;33.57
59487;BME280;45298;54.918;73.504;2023-07-09T07:39:11;99874.97;;;29.10;34.01
59487;BME280;45298;54.918;73.504;2023-07-09T07:41:40;99881.84;;;29.20;33.17
59487;BME280;45298;54.918;73.504;2023-07-09T07:44:10;99869.84;;;29.21;33.90
59487;BME280;45298;54.918;73.504;2023-07-09T07:46:38;99872.66;;;29.39;34.60
59487;BME280;45298;54.918;73.504;2023-07-09T07:49:07;99873.44;;;29.47;32.74
59487;BME280;45298;54.918;73.504;2023-07-09T07:51:36;99881.19;;;29.50;33.13
59487;BME280;45298;54.918;73.504;2023-07-09T07:54:06;99892.09;;;29.24;34.46
59487;BME280;45298;54.918;73.504;2023-07-09T07:56:37;99882.47;;;29.15;34.77
59487;BME280;45298;54.918;73.504;2023-07-09T07:59:07;99850.72;;;28.95;35.31
59487;BME280;45298;54.918;73.504;2023-07-09T08:01:36;99889.63;;;29.16;34.17
59487;BME280;45298;54.918;73.504;2023-07-09T08:04:05;99874.47;;;28.95;34.73
59487;BME280;45298;54.918;73.504;2023-07-09T08:06:34;99883.97;;;28.86;33.88
59487;BME280;45298;54.918;73.504;2023-07-09T08:09:03;99877.13;;;28.70;35.49
59487;BME280;45298;54.918;73.504;2023-07-09T08:11:32;99875.63;;;29.06;37.51
59487;BME280;45298;54.918;73.504;2023-07-09T08:14:01;99871.44;;;29.35;35.49
59487;BME280;45298;54.918;73.504;2023-07-09T08:16:30;99878.34;;;29.38;34.20
59487;BME280;45298;54.918;73.504;2023-07-09T08:19:00;99878.13;;;29.33;33.49
59487;BME280;45298;54.918;73.504;2023-07-09T08:21:29;99884.28;;;29.03;34.05
59487;BME280;45298;54.918;73.504;2023-07-09T08:23:58;99888.41;;;28.80;34.25
59487;BME280;45298;54.918;73.504;2023-07-09T08:26:27;99883.16;;;28.33;33.58
59487;BME280;45298;54.918;73.504;2023-07-09T08:28:57;99883.47;;;28.04;35.25
59487;BME280;45298;54.918;73.504;2023-07-09T08:31:26;99879.72;;;27.92;35.93
59487;BME280;45298;54.918;73.504;2023-07-09T08:33:55;99894.56;;;28.10;36.85
59487;BME280;45298;54.918;73.504;2023-07-09T08:36:24;99905.66;;;28.15;36.67
59487;BME280;45298;54.918;73.504;2023-07-09T08:38:57;99904.75;;;28.34;37.43
59487;BME280;45298;54.918;73.504;2023-07-09T08:44:33;99894.16;;;28.58;36.59
59487;BME280;45298;54.918;73.504;2023-07-09T08:47:27;99873.94;;;28.34;34.77
59487;BME280;45298;54.918;73.504;2023-07-09T08:50:05;99875.47;;;28.10;35.48
59487;BME280;45298;54.918;73.504;2023-07-09T08:52:47;99867.78;;;27.80;36.75
59487;BME280;45298;54.918;73.504;2023-07-09T08:55:20;99872.25;;;27.54;36.93
59487;BME280;45298;54.918;73.504;2023-07-09T08:57:56;99857.16;;;27.31;37.32
59487;BME280;45298;54.918;73.504;2023-07-09T09:01:24;99866.34;;;27.43;37.30
59487;BME280;45298;54.918;73.504;2023-07-09T09:03:54;99871.16;;;27.82;36.22
59487;BME280;45298;54.918;73.504;2023-07-09T09:06:29;99879.28;;;27.95;38.47
59487;BME280;45298;54.918;73.504;2023-07-09T09:09:33;99872.56;;;28.04;36.06
59487;BME280;45298;54.918;73.504;2023-07-09T09:12:21;99876.13;;;28.12;37.22
59487;BME280;45298;54.918;73.504;2023-07-09T09:15:00;99854.09;;;28.07;37.32
59487;BME280;45298;54.918;73.504;2023-07-09T09:17:30;99865.78;;;28.27;37.86
59487;BME280;45298;54.918;73.504;2023-07-09T09:20:06;99839.81;;;28.18;37.50
59487;BME280;45298;54.918;73.504;2023-07-09T09:25:23;99854.25;;;28.25;37.13
59487;BME280;45298;54.918;73.504;2023-07-09T09:27:56;99857.69;;;28.14;35.44
59487;BME280;45298;54.918;73.504;2023-07-09T09:30:27;99844.94;;;27.94;36.96
59487;BME280;45298;54.918;73.504;2023-07-09T09:33:44;99854.94;;;28.00;36.81
59487;BME280;45298;54.918;73.504;2023-07-09T09:36:20;99846.63;;;28.41;36.62
59487;BME280;45298;54.918;73.504;2023-07-09T09:38:50;99851.38;;;28.59;36.75
59487;BME280;45298;54.918;73.504;2023-07-09T09:41:24;99841.34;;;28.85;35.75
59487;BME280;45298;54.918;73.504;2023-07-09T09:43:54;99833.19;;;28.78;33.95
59487;BME280;45298;54.918;73.504;2023-07-09T09:46:26;99831.16;;;28.99;34.54
59487;BME280;45298;54.918;73.504;2023-07-09T09:48:59;99826.31;;;29.01;33.81
59487;BME280;45298;54.918;73.504;2023-07-09T09:51:29;99838.47;;;29.05;35.08
59487;BME280;45298;54.918;73.504;2023-07-09T09:54:00;99840.31;;;29.11;34.55
59487;BME280;45298;54.918;73.504;2023-07-09T09:56:33;99834.34;;;28.95;34.93
59487;BME280;45298;54.918;73.504;2023-07-09T09:59:04;99821.16;;;28.92;35.67
59487;BME280;45298;54.918;73.504;2023-07-09T10:01:35;99826.94;;;29.03;34.63
59487;BME280;45298;54.918;73.504;2023-07-09T10:04:05;99844.25;;;29.15;35.27
59487;BME280;45298;54.918;73.504;2023-07-09T10:06:37;99846.88;;;29.03;35.37
59487;BME280;45298;54.918;73.504;2023-07-09T10:14:51;99830.22;;;28.86;34.96
59487;BME280;45298;54.918;73.504;2023-07-09T10:20:36;99847.00;;;28.44;35.58
59487;BME280;45298;54.918;73.504;2023-07-09T10:26:22;99833.53;;;28.17;35.36
59487;BME280;45298;54.918;73.504;2023-07-09T10:29:35;99841.88;;;28.29;35.34
59487;BME280;45298;54.918;73.504;2023-07-09T10:32:28;99836.84;;;28.26;36.16
59487;BME280;45298;54.918;73.504;2023-07-09T10:38:37;99846.44;;;28.42;35.67
59487;BME280;45298;54.918;73.504;2023-07-09T10:41:11;99842.16;;;28.53;37.01
59487;BME280;45298;54.918;73.504;2023-07-09T10:44:11;99831.41;;;28.58;37.06
59487;BME280;45298;54.918;73.504;2023-07-09T10:46:49;99832.81;;;28.74;36.88
59487;BME280;45298;54.918;73.504;2023-07-09T10:49:21;99798.06;;;28.56;35.21
59487;BME280;45298;54.918;73.504;2023-07-09T10:51:59;99814.41;;;28.56;36.06
59487;BME280;45298;54.918;73.504;2023-07-09T10:57:46;99822.69;;;28.43;35.60
59487;BME280;45298;54.918;73.504;2023-07-09T11:00:20;99826.47;;;28.42;36.03
59487;BME280;45298;54.918;73.504;2023-07-09T11:02:58;99818.00;;;28.18;35.94
59487;BME280;45298;54.918;73.504;2023-07-09T11:05:28;99775.09;;;27.93;36.76
59487;BME280;45298;54.918;73.504;2023-07-09T11:08:14;99803.97;;;28.08;37.34
59487;BME280;45298;54.918;73.504;2023-07-09T11:10:55;99812.94;;;28.28;37.91
59487;BME280;45298;54.918;73.504;2023-07-09T11:13:44;99821.88;;;28.35;36.78
59487;BME280;45298;54.918;73.504;2023-07-09T11:16:28;99813.28;;;28.39;36.61
59487;BME280;45298;54.918;73.504;2023-07-09T11:19:02;99802.78;;;28.35;37.88
59487;BME280;45298;54.918;73.504;2023-07-09T11:21:32;99797.34;;;28.35;36.50
59487;BME280;45298;54.918;73.504;2023-07-09T11:24:05;99798.94;;;28.04;37.90
59487;BME280;45298;54.918;73.504;2023-07-09T11:26:35;99798.59;;;27.94;37.87
59487;BME280;45298;54.918;73.504;2023-07-09T11:31:42;99806.09;;;27.99;38.35
59487;BME280;45298;54.918;73.504;2023-07-09T11:36:49;99812.16;;;28.14;37.73
59487;BME280;45298;54.918;73.504;2023-07-09T11:42:31;99801.16;;;27.75;38.51
59487;BME280;45298;54.918;73.504;2023-07-09T11:45:12;99796.41;;;27.57;38.32
59487;BME280;45298;54.918;73.504;2023-07-09T11:50:49;99796.56;;;27.69;38.46
59487;BME280;45298;54.918;73.504;2023-07-09T11:53:41;99801.41;;;27.67;37.96
59487;BME280;45298;54.918;73.504;2023-07-09T11:56:13;99774.56;;;27.64;39.60
59487;BME280;45298;54.918;73.504;2023-07-09T11:58:55;99790.94;;;27.57;39.34
59487;BME280;45298;54.918;73.504;2023-07-09T12:01:42;99791.38;;;27.48;40.05
59487;BME280;45298;54.918;73.504;2023-07-09T12:04:16;99793.66;;;27.37;39.72
59487;BME280;45298;54.918;73.504;2023-07-09T12:06:46;99789.91;;;27.32;38.58
59487;BME280;45298;54.918;73.504;2023-07-09T12:09:18;99785.06;;;27.40;38.48
59487;BME280;45298;54.918;73.504;2023-07-09T12:11:50;99775.44;;;27.44;37.97
59487;BME280;45298;54.918;73.504;2023-07-09T12:14:21;99785.91;;;27.54;38.52
59487;BME280;45298;54.918;73.504;2023-07-09T12:16:52;99775.25;;;27.46;38.39
59487;BME280;45298;54.918;73.504;2023-07-09T12:19:24;99789.72;;;27.47;37.69
59487;BME280;45298;54.918;73.504;2023-07-09T12:21:58;99785.75;;;27.22;38.93
59487;BME280;45298;54.918;73.504;2023-07-09T12:24:30;99782.22;;;27.02;37.83
59487;BME280;45298;54.918;73.504;2023-07-09T12:27:01;99780.09;;;26.90;38.89
59487;BME280;45298;54.918;73.504;2023-07-09T12:29:35;99785.13;;;26.87;40.05
59487;BME280;45298;54.918;73.504;2023-07-09T12:32:16;99788.25;;;26.77;40.30
59487;BME280;45298;54.918;73.504;2023-07-09T12:34:53;99782.78;;;26.70;39.38
59487;BME280;45298;54.918;73.504;2023-07-09T12:37:25;99791.84;;;26.84;40.40
59487;BME280;45298;54.918;73.504;2023-07-09T12:40:00;99781.16;;;26.82;40.32
59487;BME280;45298;54.918;73.504;2023-07-09T12:42:34;99798.09;;;26.91;39.67
59487;BME280;45298;54.918;73.504;2023-07-09T12:45:07;99787.22;;;26.84;39.51
59487;BME280;45298;54.918;73.504;2023-07-09T12:47:41;99794.09;;;26.74;40.78
59487;BME280;45298;54.918;73.504;2023-07-09T12:50:40;99806.88;;;26.73;40.19
59487;BME280;45298;54.918;73.504;2023-07-09T12:53:17;99790.53;;;26.66;40.62
59487;BME280;45298;54.918;73.504;2023-07-09T12:55:55;99795.97;;;26.66;40.66
59487;BME280;45298;54.918;73.504;2023-07-09T12:58:33;99796.78;;;26.53;40.39
59487;BME280;45298;54.918;73.504;2023-07-09T13:01:16;99788.19;;;26.50;40.69
59487;BME280;45298;54.918;73.504;2023-07-09T13:03:55;99791.13;;;26.48;40.39
59487;BME280;45298;54.918;73.504;2023-07-09T13:06:29;99795.31;;;26.51;40.31
59487;BME280;45298;54.918;73.504;2023-07-09T13:09:00;99737.78;;;26.27;42.41
59487;BME280;45298;54.918;73.504;2023-07-09T13:11:34;99771.91;;;26.57;42.07
59487;BME280;45298;54.918;73.504;2023-07-09T13:14:18;99777.94;;;26.59;41.46
59487;BME280;45298;54.918;73.504;2023-07-09T13:16:49;99783.84;;;26.62;40.81
59487;BME280;45298;54.918;73.504;2023-07-09T13:19:19;99784.66;;;26.56;42.52
59487;BME280;45298;54.918;73.504;2023-07-09T13:21:52;99782.16;;;26.54;41.76
59487;BME280;45298;54.918;73.504;2023-07-09T13:24:28;99776.28;;;26.51;41.46
59487;BME280;45298;54.918;73.504;2023-07-09T13:26:59;99713.47;;;26.12;40.92
59487;BME280;45298;54.918;73.504;2023-07-09T13:29:33;99762.66;;;26.44;40.46
59487;BME280;45298;54.918;73.504;2023-07-09T13:32:11;99775.84;;;26.47;40.93
59487;BME280;45298;54.918;73.504;2023-07-09T13:34:42;99766.00;;;26.33;42.59
59487;BME280;45298;54.918;73.504;2023-07-09T13:37:15;99791.53;;;26.45;43.92
59487;BME280;45298;54.918;73.504;2023-07-09T13:39:45;99788.19;;;26.43;43.79
59487;BME280;45298;54.918;73.504;2023-07-09T13:42:16;99774.81;;;26.35;42.31
59487;BME280;45298;54.918;73.504;2023-07-09T13:44:47;99776.66;;;26.28;42.57
59487;BME280;45298;54.918;73.504;2023-07-09T13:47:18;99785.44;;;26.30;43.88
59487;BME280;45298;54.918;73.504;2023-07-09T13:49:48;99783.34;;;26.25;43.73
59487;BME280;45298;54.918;73.504;2023-07-09T13:52:21;99743.50;;;25.97;42.82
59487;BME280;45298;54.918;73.504;2023-07-09T13:54:52;99775.72;;;26.07;41.53
59487;BME280;45298;54.918;73.504;2023-07-09T13:57:22;99789.13;;;26.08;42.12
59487;BME280;45298;54.918;73.504;2023-07-09T13:59:51;99787.44;;;26.07;42.79